createdAt,value
2023-04-10T00:01:40.641Z,18.80
2023-04-10T00:04:16.084Z,14.60
2023-04-10T00:06:46.605Z,14.70
2023-04-10T00:09:15.695Z,13.50
2023-04-10T00:11:44.365Z,12.20
2023-04-10T00:14:16.230Z,11.90
2023-04-10T00:16:48.233Z,12.20
2023-04-10T00:19:17.157Z,11.80
2023-04-10T00:21:51.982Z,12.00
2023-04-10T00:24:23.138Z,11.50
2023-04-10T00:26:58.227Z,11.20
2023-04-10T00:29:26.546Z,12.30
2023-04-10T00:32:01.823Z,12.30
2023-04-10T00:34:30.091Z,12.20
2023-04-10T00:37:02.421Z,12.90
2023-04-10T00:39:30.783Z,12.70
2023-04-10T00:42:01.679Z,12.00
2023-04-10T00:44:30.980Z,13.60
2023-04-10T00:46:59.179Z,14.10
2023-04-10T00:49:27.811Z,14.50
2023-04-10T00:51:57.938Z,13.90
2023-04-10T00:54:30.643Z,15.00
2023-04-10T00:56:59.914Z,16.40
2023-04-10T00:59:28.124Z,15.50
2023-04-10T01:01:58.087Z,15.20
2023-04-10T01:04:36.515Z,16.10
2023-04-10T01:07:15.672Z,15.90
2023-04-10T01:10:08.632Z,15.50
2023-04-10T01:13:01.217Z,13.30
2023-04-10T01:15:30.276Z,12.70
2023-04-10T01:18:07.106Z,14.10
2023-04-10T01:20:37.944Z,12.90
2023-04-10T01:23:34.509Z,13.00
2023-04-10T01:26:07.527Z,13.50
2023-04-10T01:28:52.086Z,13.20
2023-04-10T01:31:42.946Z,13.20
2023-04-10T01:34:17.038Z,13.30
2023-04-10T01:37:10.445Z,12.00
2023-04-10T01:39:40.669Z,13.90
2023-04-10T01:42:09.486Z,12.80
2023-04-10T01:44:42.568Z,13.30
2023-04-10T01:47:11.295Z,14.20
2023-04-10T01:49:44.626Z,13.70
2023-04-10T01:52:13.396Z,14.20
2023-04-10T01:54:45.899Z,16.00
2023-04-10T01:57:17.050Z,13.50
2023-04-10T01:59:58.716Z,14.10
2023-04-10T02:02:33.733Z,13.10
2023-04-10T02:05:02.602Z,15.30
2023-04-10T02:07:41.970Z,14.10
2023-04-10T02:10:16.870Z,12.90
2023-04-10T02:13:14.782Z,13.60
2023-04-10T02:15:51.021Z,12.90
2023-04-10T02:18:22.011Z,12.90
2023-04-10T02:20:50.693Z,14.00
2023-04-10T02:23:21.058Z,12.10
2023-04-10T02:25:49.858Z,11.90
2023-04-10T02:28:24.022Z,13.50
2023-04-10T02:30:54.149Z,14.10
2023-04-10T02:33:22.748Z,14.70
2023-04-10T02:35:51.023Z,14.70
2023-04-10T02:38:19.247Z,15.30
2023-04-10T02:40:48.900Z,15.40
2023-04-10T02:43:21.508Z,13.00
2023-04-10T02:45:50.028Z,13.20
2023-04-10T02:48:23.718Z,13.50
2023-04-10T02:50:57.873Z,14.40
2023-04-10T02:53:26.734Z,15.70
2023-04-10T02:56:01.089Z,16.30
2023-04-10T02:58:32.887Z,14.90
2023-04-10T03:01:02.329Z,14.00
2023-04-10T03:06:58.146Z,15.00
2023-04-10T03:09:26.783Z,15.70
2023-04-10T03:11:55.523Z,14.70
2023-04-10T03:14:27.163Z,14.20
2023-04-10T03:16:56.060Z,15.40
2023-04-10T03:19:26.801Z,14.40
2023-04-10T03:21:57.698Z,13.30
2023-04-10T03:24:29.531Z,13.60
2023-04-10T03:27:04.403Z,14.50
2023-04-10T03:29:32.598Z,15.10
2023-04-10T03:32:03.312Z,17.80
2023-04-10T03:34:33.917Z,18.10
2023-04-10T03:37:03.241Z,22.20
2023-04-10T03:39:31.509Z,26.00
2023-04-10T03:41:59.942Z,23.00
2023-04-10T03:44:32.181Z,21.30
2023-04-10T03:47:01.512Z,23.20
2023-04-10T03:49:30.495Z,21.90
2023-04-10T03:52:06.516Z,21.90
2023-04-10T03:54:38.767Z,25.40
2023-04-10T03:57:09.133Z,27.10
2023-04-10T03:59:41.039Z,24.60
2023-04-10T04:02:12.149Z,26.60
2023-04-10T04:04:41.925Z,25.40
2023-04-10T04:07:39.369Z,24.70
2023-04-10T04:10:26.999Z,24.70
2023-04-10T04:13:16.150Z,26.00
2023-04-10T04:15:55.890Z,26.90
2023-04-10T04:18:43.451Z,27.30
2023-04-10T04:21:42.092Z,26.70
2023-04-10T04:24:26.727Z,27.80
2023-04-10T04:27:23.468Z,28.00
2023-04-10T04:30:11.814Z,24.70
2023-04-10T04:32:52.438Z,25.40
2023-04-10T04:35:36.244Z,25.20
2023-04-10T04:38:40.334Z,25.00
2023-04-10T04:41:27.206Z,24.20
2023-04-10T04:44:11.699Z,26.20
2023-04-10T04:46:55.578Z,25.30
2023-04-10T04:49:30.133Z,28.30
2023-04-10T04:52:17.564Z,25.40
2023-04-10T04:55:03.515Z,26.20
2023-04-10T04:57:45.990Z,27.00
2023-04-10T05:00:27.700Z,23.80
2023-04-10T05:03:10.066Z,23.30
2023-04-10T05:05:59.012Z,22.90
2023-04-10T05:08:48.134Z,24.50
2023-04-10T05:11:43.428Z,26.30
2023-04-10T05:14:23.927Z,25.10
2023-04-10T05:17:12.406Z,27.90
2023-04-10T05:19:49.305Z,25.40
2023-04-10T05:22:23.584Z,26.30
2023-04-10T05:25:10.530Z,27.80
2023-04-10T05:28:00.105Z,21.50
2023-04-10T05:30:43.638Z,18.20
2023-04-10T05:35:55.112Z,18.00
2023-04-10T05:39:05.146Z,17.00
2023-04-10T05:42:14.204Z,12.40
2023-04-10T05:44:57.484Z,12.80
2023-04-10T05:47:48.152Z,11.50
2023-04-10T05:50:30.780Z,11.80
2023-04-10T05:53:31.898Z,11.80
2023-04-10T05:56:28.662Z,12.50
2023-04-10T05:59:24.144Z,11.20
2023-04-10T06:02:03.516Z,11.90
2023-04-10T06:04:32.035Z,12.90
2023-04-10T06:07:03.981Z,12.30
2023-04-10T06:09:34.100Z,11.70
2023-04-10T06:12:03.341Z,11.20
2023-04-10T06:14:32.114Z,12.50
2023-04-10T06:17:02.589Z,11.90
2023-04-10T06:19:31.807Z,10.90
2023-04-10T06:21:59.984Z,12.40
2023-04-10T06:24:30.201Z,11.90
2023-04-10T06:26:59.924Z,11.60
2023-04-10T06:29:28.082Z,13.10
2023-04-10T06:31:57.089Z,13.70
2023-04-10T06:34:25.627Z,12.00
2023-04-10T06:37:01.381Z,11.90
2023-04-10T06:39:30.334Z,11.40
2023-04-10T06:41:58.831Z,12.10
2023-04-10T06:44:56.174Z,12.10
2023-04-10T06:47:25.113Z,12.30
2023-04-10T06:50:04.430Z,11.30
2023-04-10T06:52:33.545Z,10.30
2023-04-10T06:55:01.773Z,10.20
2023-04-10T06:57:30.613Z,9.50
2023-04-10T06:59:59.135Z,10.10
2023-04-10T07:02:27.932Z,12.60
2023-04-10T07:04:57.170Z,9.80
2023-04-10T07:07:29.262Z,12.50
2023-04-10T07:09:58.232Z,11.20
2023-04-10T07:12:29.565Z,9.30
2023-04-10T07:15:03.908Z,8.70
2023-04-10T07:17:33.206Z,8.20
2023-04-10T07:20:01.897Z,9.00
2023-04-10T07:22:31.101Z,9.10
2023-04-10T07:24:59.631Z,6.10
2023-04-10T07:27:28.207Z,6.40
2023-04-10T07:29:57.227Z,6.00
2023-04-10T07:32:27.922Z,6.20
2023-04-10T07:34:56.434Z,5.60
2023-04-10T07:37:25.960Z,6.30
2023-04-10T07:39:54.719Z,5.70
2023-04-10T07:42:23.535Z,5.80
2023-04-10T07:44:52.407Z,5.40
2023-04-10T07:47:20.750Z,4.50
2023-04-10T07:49:49.650Z,5.10
2023-04-10T07:52:18.601Z,4.90
2023-04-10T07:54:47.086Z,5.00
2023-04-10T07:57:17.007Z,4.90
2023-04-10T07:59:46.203Z,4.70
2023-04-10T08:02:15.121Z,4.50
2023-04-10T08:04:44.842Z,3.90
2023-04-10T08:07:13.717Z,5.60
2023-04-10T08:09:42.082Z,4.90
2023-04-10T08:12:12.101Z,3.70
2023-04-10T08:14:40.382Z,4.20
2023-04-10T08:17:15.072Z,4.30
2023-04-10T08:19:44.350Z,4.40
2023-04-10T08:22:15.566Z,4.50
2023-04-10T08:24:45.257Z,4.50
2023-04-10T08:27:33.826Z,3.30
2023-04-10T08:30:07.541Z,4.60
2023-04-10T08:32:39.821Z,3.70
2023-04-10T08:35:12.815Z,4.40
2023-04-10T08:37:49.651Z,3.60
2023-04-10T08:40:24.646Z,3.80
2023-04-10T08:42:54.337Z,4.00
2023-04-10T08:45:22.958Z,4.30
2023-04-10T08:47:52.756Z,3.10
2023-04-10T08:50:21.936Z,3.20
2023-04-10T08:52:53.621Z,2.90
2023-04-10T08:55:27.071Z,3.30
2023-04-10T08:58:00.948Z,3.10
2023-04-10T09:00:31.807Z,3.40
2023-04-10T09:03:55.517Z,2.80
2023-04-10T09:06:28.320Z,3.00
2023-04-10T09:12:01.565Z,2.90
2023-04-10T09:14:32.221Z,2.80
2023-04-10T09:17:20.502Z,4.80
2023-04-10T09:19:50.685Z,3.60
2023-04-10T09:22:29.145Z,3.10
2023-04-10T09:24:59.612Z,3.50
2023-04-10T09:27:32.703Z,4.30
2023-04-10T09:30:01.341Z,3.00
2023-04-10T09:32:43.711Z,2.60
2023-04-10T09:35:15.281Z,3.30
2023-04-10T09:37:47.234Z,2.90
2023-04-10T09:40:21.518Z,2.90
2023-04-10T09:42:53.186Z,3.20
2023-04-10T09:45:23.108Z,3.10
2023-04-10T09:48:07.743Z,2.90
2023-04-10T09:50:42.362Z,3.00
2023-04-10T09:53:19.710Z,2.60
2023-04-10T09:55:49.738Z,3.20
2023-04-10T09:58:19.226Z,3.50
2023-04-10T10:00:49.128Z,4.10
2023-04-10T10:03:21.276Z,3.30
2023-04-10T10:05:50.893Z,3.10
2023-04-10T10:08:26.601Z,2.90
2023-04-10T10:10:57.671Z,2.80
2023-04-10T10:13:36.822Z,2.60
2023-04-10T10:16:11.174Z,2.10
2023-04-10T10:18:59.461Z,2.30
2023-04-10T10:21:28.656Z,2.80
2023-04-10T10:26:32.131Z,3.20
2023-04-10T10:29:06.212Z,3.10
2023-04-10T10:31:37.449Z,2.90
2023-04-10T10:34:07.732Z,2.60
2023-04-10T10:36:37.164Z,2.90
2023-04-10T10:39:26.974Z,3.00
2023-04-10T10:42:14.261Z,3.30
2023-04-10T10:44:53.340Z,3.10
2023-04-10T10:47:31.183Z,2.90
2023-04-10T10:50:03.687Z,3.00
2023-04-10T10:52:39.530Z,3.00
2023-04-10T10:55:24.994Z,2.50
2023-04-10T10:58:09.075Z,2.60
2023-04-10T11:00:53.014Z,3.20
2023-04-10T11:03:28.918Z,3.20
2023-04-10T11:06:03.252Z,2.50
2023-04-10T11:08:33.668Z,2.70
2023-04-10T11:11:08.513Z,2.50
2023-04-10T11:13:39.663Z,2.60
2023-04-10T11:16:10.914Z,2.10
2023-04-10T11:19:02.615Z,2.50
2023-04-10T11:21:35.705Z,2.60
2023-04-10T11:24:07.462Z,2.70
2023-04-10T11:26:39.992Z,2.10
2023-04-10T11:29:17.706Z,1.90
2023-04-10T11:31:55.615Z,2.30
2023-04-10T11:34:24.050Z,3.40
2023-04-10T11:36:53.470Z,2.50
2023-04-10T11:39:21.681Z,2.00
2023-04-10T11:41:51.532Z,2.10
2023-04-10T11:44:29.894Z,2.20
2023-04-10T11:46:58.176Z,2.20
2023-04-10T11:49:34.739Z,2.70
2023-04-10T11:52:03.266Z,2.10
2023-04-10T11:54:32.755Z,2.40
2023-04-10T11:57:09.625Z,2.10
2023-04-10T11:59:41.215Z,2.00
2023-04-10T12:02:11.704Z,1.90
2023-04-10T12:04:40.480Z,1.60
2023-04-10T12:07:11.145Z,2.00
2023-04-10T12:09:39.471Z,2.20
2023-04-10T12:12:12.942Z,2.00
2023-04-10T12:14:42.778Z,2.40
2023-04-10T12:17:13.755Z,4.70
2023-04-10T12:19:53.497Z,2.70
2023-04-10T12:22:22.173Z,2.20
2023-04-10T12:24:53.735Z,2.40
2023-04-10T12:27:27.160Z,2.20
2023-04-10T12:29:58.127Z,2.20
2023-04-10T12:32:29.923Z,2.20
2023-04-10T12:34:59.329Z,2.60
2023-04-10T12:37:54.863Z,2.80
2023-04-10T12:40:23.366Z,2.20
2023-04-10T12:42:51.939Z,1.90
2023-04-10T12:45:21.690Z,2.20
2023-04-10T12:47:54.010Z,2.20
2023-04-10T12:50:28.907Z,2.20
2023-04-10T12:53:24.716Z,2.20
2023-04-10T12:56:03.586Z,2.40
2023-04-10T12:58:32.904Z,2.30
2023-04-10T13:01:09.464Z,2.40
2023-04-10T13:03:38.842Z,2.30
2023-04-10T13:06:08.070Z,2.00
2023-04-10T13:08:36.659Z,2.30
2023-04-10T13:11:08.777Z,3.00
2023-04-10T13:13:39.698Z,2.60
2023-04-10T13:16:12.942Z,2.10
2023-04-10T13:18:42.371Z,2.70
2023-04-10T13:21:12.266Z,1.90
2023-04-10T13:23:42.709Z,2.20
2023-04-10T13:26:11.030Z,2.40
2023-04-10T13:28:40.669Z,3.80
2023-04-10T13:31:08.994Z,2.20
2023-04-10T13:33:37.587Z,2.10
2023-04-10T13:36:06.179Z,2.10
2023-04-10T13:38:34.506Z,3.20
2023-04-10T13:41:03.189Z,2.30
2023-04-10T13:43:31.488Z,4.70
2023-04-10T13:45:59.993Z,3.70
2023-04-10T13:48:37.535Z,2.60
2023-04-10T13:51:08.922Z,3.00
2023-04-10T13:53:37.766Z,3.00
2023-04-10T13:56:07.131Z,2.80
2023-04-10T13:58:36.530Z,2.70
2023-04-10T14:01:05.658Z,3.30
2023-04-10T14:03:35.621Z,2.70
2023-04-10T14:06:04.312Z,2.30
2023-04-10T14:08:33.899Z,2.80
2023-04-10T14:11:03.268Z,2.50
2023-04-10T14:13:31.891Z,3.20
2023-04-10T14:16:04.376Z,2.90
2023-04-10T14:18:33.759Z,2.50
2023-04-10T14:21:05.545Z,2.50
2023-04-10T14:23:42.134Z,3.00
2023-04-10T14:26:11.056Z,3.00
2023-04-10T14:28:42.841Z,3.20
2023-04-10T14:31:12.802Z,2.30
2023-04-10T14:33:41.196Z,2.60
2023-04-10T14:36:09.939Z,2.80
2023-04-10T14:38:38.130Z,2.90
2023-04-10T14:41:08.019Z,3.40
2023-04-10T14:43:37.839Z,3.00
2023-04-10T14:46:06.496Z,3.30
2023-04-10T14:48:37.593Z,3.30
2023-04-10T14:51:13.082Z,3.10
2023-04-10T14:53:41.838Z,3.60
2023-04-10T14:56:13.743Z,3.60
2023-04-10T14:58:43.995Z,4.10
2023-04-10T15:01:13.492Z,3.30
2023-04-10T15:03:41.949Z,4.00
2023-04-10T15:06:14.088Z,3.50
2023-04-10T15:08:42.499Z,3.50
2023-04-10T15:11:10.698Z,4.30
2023-04-10T15:13:40.835Z,3.00
2023-04-10T15:16:09.240Z,3.80
2023-04-10T15:18:37.482Z,3.80
2023-04-10T15:21:06.425Z,3.60
2023-04-10T15:23:34.702Z,4.20
2023-04-10T15:26:14.266Z,4.20
2023-04-10T15:28:46.076Z,4.00
2023-04-10T15:31:14.442Z,5.10
2023-04-10T15:33:51.811Z,5.60
2023-04-10T15:36:20.433Z,5.00
2023-04-10T15:38:50.154Z,5.10
2023-04-10T15:41:19.685Z,6.00
2023-04-10T15:43:51.499Z,6.40
2023-04-10T15:46:19.883Z,5.60
2023-04-10T15:48:56.814Z,5.70
2023-04-10T15:51:32.809Z,5.00
2023-04-10T15:54:03.463Z,5.60
2023-04-10T15:56:33.115Z,5.70
2023-04-10T15:59:03.741Z,5.00
2023-04-10T16:01:32.355Z,4.60
2023-04-10T16:04:04.328Z,5.20
2023-04-10T16:06:34.297Z,5.00
2023-04-10T16:09:03.539Z,5.20
2023-04-10T16:11:36.863Z,4.90
2023-04-10T16:14:05.798Z,6.00
2023-04-10T16:16:34.712Z,5.10
2023-04-10T16:19:10.149Z,4.40
2023-04-10T16:21:38.492Z,4.90
2023-04-10T16:24:07.023Z,5.10
2023-04-10T16:26:36.053Z,3.90
2023-04-10T16:29:06.897Z,4.10
2023-04-10T16:31:35.413Z,5.00
2023-04-10T16:34:05.291Z,4.20
2023-04-10T16:36:34.131Z,4.60
2023-04-10T16:39:02.509Z,4.70
2023-04-10T16:41:31.329Z,3.60
2023-04-10T16:44:00.317Z,4.30
2023-04-10T16:46:28.916Z,5.90
2023-04-10T16:48:58.618Z,5.30
2023-04-10T16:51:28.456Z,5.10
2023-04-10T16:54:00.221Z,5.00
2023-04-10T16:56:28.768Z,4.50
2023-04-10T16:58:59.597Z,4.40
2023-04-10T17:01:29.227Z,4.30
2023-04-10T17:03:58.231Z,4.20
2023-04-10T17:06:34.230Z,4.70
2023-04-10T17:09:03.209Z,4.60
2023-04-10T17:11:31.675Z,4.40
2023-04-10T17:13:59.998Z,5.00
2023-04-10T17:16:28.299Z,5.00
2023-04-10T17:18:59.092Z,4.60
2023-04-10T17:21:27.504Z,5.20
2023-04-10T17:23:59.399Z,5.80
2023-04-10T17:26:27.887Z,6.60
2023-04-10T17:28:56.740Z,6.30
2023-04-10T17:31:25.894Z,6.10
2023-04-10T17:33:54.596Z,6.70
2023-04-10T17:36:30.526Z,6.70
2023-04-10T17:39:04.265Z,7.30
2023-04-10T17:41:33.074Z,7.20
2023-04-10T17:44:05.608Z,7.80
2023-04-10T17:46:34.166Z,8.10
2023-04-10T17:53:03.346Z,8.30
2023-04-10T17:55:38.759Z,8.50
2023-04-10T17:58:06.628Z,7.30
2023-04-10T18:00:33.894Z,7.90
2023-04-10T18:03:01.545Z,7.40
2023-04-10T18:05:30.224Z,8.30
2023-04-10T18:08:01.176Z,8.20
2023-04-10T18:10:28.405Z,8.40
2023-04-10T18:12:58.043Z,8.20
2023-04-10T18:15:25.671Z,9.70
2023-04-10T18:17:54.275Z,9.60
2023-04-10T18:20:21.998Z,9.80
2023-04-10T18:22:49.958Z,10.20
2023-04-10T18:25:17.115Z,10.00
2023-04-10T18:28:09.733Z,10.20
2023-04-10T18:30:38.583Z,9.40
2023-04-10T18:33:10.612Z,10.30
2023-04-10T18:35:39.540Z,18.90
2023-04-10T18:38:07.688Z,8.80
2023-04-10T18:40:37.693Z,8.70
2023-04-10T18:43:04.778Z,7.90
2023-04-10T18:45:33.872Z,7.80
2023-04-10T18:48:00.901Z,7.40
2023-04-10T18:50:27.946Z,7.00
2023-04-10T18:52:56.061Z,7.90
2023-04-10T18:55:23.727Z,7.20
2023-04-10T18:57:50.918Z,7.20
2023-04-10T19:00:18.631Z,6.60
